sensor_id;sensor_type;location;lat;lon;timestamp;P1;durP1;ratioP1;P2;durP2;ratioP2
19219;SDS011;9744;49.364;7.484;2023-12-20T00:01:08;695.92;;;52.58;;
19219;SDS011;9744;49.364;7.484;2023-12-20T00:03:35;362.45;;;32.97;;
19219;SDS011;9744;49.364;7.484;2023-12-20T00:06:07;220.60;;;25.27;;
19219;SDS011;9744;49.364;7.484;2023-12-20T00:08:35;1060.63;;;73.57;;
19219;SDS011;9744;49.364;7.484;2023-12-20T00:11:04;848.70;;;60.83;;
19219;SDS011;9744;49.364;7.484;2023-12-20T00:13:33;780.00;;;50.33;;
19219;SDS011;9744;49.364;7.484;2023-12-20T00:16:00;495.65;;;37.15;;
19219;SDS011;9744;49.364;7.484;2023-12-20T00:18:28;654.15;;;42.55;;
19219;SDS011;9744;49.364;7.484;2023-12-20T00:20:55;130.13;;;22.77;;
19219;SDS011;9744;49.364;7.484;2023-12-20T00:23:24;583.05;;;38.78;;
19219;SDS011;9744;49.364;7.484;2023-12-20T00:25:53;653.58;;;46.83;;
19219;SDS011;9744;49.364;7.484;2023-12-20T00:28:20;608.17;;;49.95;;
19219;SDS011;9744;49.364;7.484;2023-12-20T00:30:49;262.55;;;25.77;;
19219;SDS011;9744;49.364;7.484;2023-12-20T00:33:17;926.13;;;56.55;;
19219;SDS011;9744;49.364;7.484;2023-12-20T00:35:45;992.65;;;66.38;;
19219;SDS011;9744;49.364;7.484;2023-12-20T00:38:12;900.38;;;58.00;;
19219;SDS011;9744;49.364;7.484;2023-12-20T00:40:41;103.20;;;17.88;;
19219;SDS011;9744;49.364;7.484;2023-12-20T00:43:09;322.50;;;27.13;;
19219;SDS011;9744;49.364;7.484;2023-12-20T00:45:37;469.75;;;32.00;;
19219;SDS011;9744;49.364;7.484;2023-12-20T00:48:05;1202.30;;;79.95;;
19219;SDS011;9744;49.364;7.484;2023-12-20T00:50:33;729.15;;;48.60;;
19219;SDS011;9744;49.364;7.484;2023-12-20T00:53:02;282.02;;;25.52;;
19219;SDS011;9744;49.364;7.484;2023-12-20T00:55:31;860.80;;;51.72;;
19219;SDS011;9744;49.364;7.484;2023-12-20T00:58:00;860.63;;;58.60;;
19219;SDS011;9744;49.364;7.484;2023-12-20T01:00:28;1137.53;;;73.20;;
19219;SDS011;9744;49.364;7.484;2023-12-20T01:02:56;617.10;;;42.53;;
19219;SDS011;9744;49.364;7.484;2023-12-20T01:05:24;420.30;;;34.20;;
19219;SDS011;9744;49.364;7.484;2023-12-20T01:07:52;1147.95;;;70.93;;
19219;SDS011;9744;49.364;7.484;2023-12-20T01:10:19;807.33;;;53.03;;
19219;SDS011;9744;49.364;7.484;2023-12-20T01:12:48;1179.55;;;73.18;;
19219;SDS011;9744;49.364;7.484;2023-12-20T01:15:17;1147.80;;;80.00;;
19219;SDS011;9744;49.364;7.484;2023-12-20T01:17:45;1035.20;;;68.65;;
19219;SDS011;9744;49.364;7.484;2023-12-20T01:20:13;469.17;;;33.30;;
19219;SDS011;9744;49.364;7.484;2023-12-20T01:22:41;1350.43;;;78.82;;
19219;SDS011;9744;49.364;7.484;2023-12-20T01:25:12;1071.78;;;59.53;;
19219;SDS011;9744;49.364;7.484;2023-12-20T01:27:40;1422.90;;;92.32;;
19219;SDS011;9744;49.364;7.484;2023-12-20T01:30:08;1079.10;;;70.28;;
19219;SDS011;9744;49.364;7.484;2023-12-20T01:32:37;1224.40;;;81.03;;
19219;SDS011;9744;49.364;7.484;2023-12-20T01:35:05;904.90;;;61.15;;
19219;SDS011;9744;49.364;7.484;2023-12-20T01:37:33;1458.40;;;92.78;;
19219;SDS011;9744;49.364;7.484;2023-12-20T01:40:01;1328.63;;;79.68;;
19219;SDS011;9744;49.364;7.484;2023-12-20T01:42:29;1193.88;;;83.03;;
19219;SDS011;9744;49.364;7.484;2023-12-20T01:44:57;1495.50;;;94.72;;
19219;SDS011;9744;49.364;7.484;2023-12-20T01:47:24;1122.75;;;62.28;;
19219;SDS011;9744;49.364;7.484;2023-12-20T01:49:54;1144.88;;;64.57;;
19219;SDS011;9744;49.364;7.484;2023-12-20T01:52:22;1452.28;;;80.85;;
19219;SDS011;9744;49.364;7.484;2023-12-20T01:54:52;1526.28;;;99.53;;
19219;SDS011;9744;49.364;7.484;2023-12-20T01:57:22;1393.60;;;93.57;;
19219;SDS011;9744;49.364;7.484;2023-12-20T01:59:50;1295.15;;;73.95;;
19219;SDS011;9744;49.364;7.484;2023-12-20T02:02:19;1368.65;;;72.95;;
19219;SDS011;9744;49.364;7.484;2023-12-20T02:04:47;1529.20;;;91.68;;
19219;SDS011;9744;49.364;7.484;2023-12-20T02:07:18;1661.72;;;99.15;;
19219;SDS011;9744;49.364;7.484;2023-12-20T02:09:46;1474.00;;;85.13;;
19219;SDS011;9744;49.364;7.484;2023-12-20T02:12:15;1288.53;;;88.70;;
19219;SDS011;9744;49.364;7.484;2023-12-20T02:14:45;1510.55;;;89.03;;
19219;SDS011;9744;49.364;7.484;2023-12-20T02:17:13;1302.47;;;76.75;;
19219;SDS011;9744;49.364;7.484;2023-12-20T02:19:41;1314.95;;;83.93;;
19219;SDS011;9744;49.364;7.484;2023-12-20T02:22:10;1384.35;;;81.13;;
19219;SDS011;9744;49.364;7.484;2023-12-20T02:24:40;1613.45;;;95.00;;
19219;SDS011;9744;49.364;7.484;2023-12-20T02:27:08;1534.78;;;85.85;;
19219;SDS011;9744;49.364;7.484;2023-12-20T02:29:36;1472.95;;;93.30;;
19219;SDS011;9744;49.364;7.484;2023-12-20T02:32:04;1366.50;;;83.85;;
19219;SDS011;9744;49.364;7.484;2023-12-20T02:34:32;1412.18;;;86.60;;
19219;SDS011;9744;49.364;7.484;2023-12-20T02:37:00;1503.35;;;96.65;;
19219;SDS011;9744;49.364;7.484;2023-12-20T02:39:29;1719.65;;;98.95;;
19219;SDS011;9744;49.364;7.484;2023-12-20T02:41:57;1610.60;;;93.05;;
19219;SDS011;9744;49.364;7.484;2023-12-20T02:44:26;1755.43;;;94.82;;
19219;SDS011;9744;49.364;7.484;2023-12-20T02:46:53;1810.95;;;94.43;;
19219;SDS011;9744;49.364;7.484;2023-12-20T02:49:23;1426.40;;;83.97;;
19219;SDS011;9744;49.364;7.484;2023-12-20T02:51:50;1847.05;;;115.68;;
19219;SDS011;9744;49.364;7.484;2023-12-20T02:54:18;1633.10;;;91.65;;
19219;SDS011;9744;49.364;7.484;2023-12-20T02:56:47;1977.03;;;114.10;;
19219;SDS011;9744;49.364;7.484;2023-12-20T02:59:15;1353.57;;;75.93;;
19219;SDS011;9744;49.364;7.484;2023-12-20T03:01:43;1857.53;;;108.22;;
19219;SDS011;9744;49.364;7.484;2023-12-20T03:04:12;1686.20;;;91.43;;
19219;SDS011;9744;49.364;7.484;2023-12-20T03:06:41;1612.10;;;90.50;;
19219;SDS011;9744;49.364;7.484;2023-12-20T03:09:08;1586.78;;;87.55;;
19219;SDS011;9744;49.364;7.484;2023-12-20T03:11:35;1627.72;;;86.18;;
19219;SDS011;9744;49.364;7.484;2023-12-20T03:14:04;1942.80;;;110.32;;
19219;SDS011;9744;49.364;7.484;2023-12-20T03:16:31;1661.75;;;95.82;;
19219;SDS011;9744;49.364;7.484;2023-12-20T03:18:58;1809.18;;;102.80;;
19219;SDS011;9744;49.364;7.484;2023-12-20T03:21:25;1783.13;;;102.90;;
19219;SDS011;9744;49.364;7.484;2023-12-20T03:23:53;1591.10;;;78.55;;
19219;SDS011;9744;49.364;7.484;2023-12-20T03:26:20;1749.95;;;96.93;;
19219;SDS011;9744;49.364;7.484;2023-12-20T03:28:48;1726.57;;;87.65;;
19219;SDS011;9744;49.364;7.484;2023-12-20T03:31:16;1802.70;;;85.57;;
19219;SDS011;9744;49.364;7.484;2023-12-20T03:33:45;1637.35;;;85.05;;
19219;SDS011;9744;49.364;7.484;2023-12-20T03:36:12;1234.00;;;66.45;;
19219;SDS011;9744;49.364;7.484;2023-12-20T03:38:39;1723.28;;;95.07;;
19219;SDS011;9744;49.364;7.484;2023-12-20T03:41:06;1769.97;;;86.50;;
19219;SDS011;9744;49.364;7.484;2023-12-20T03:43:34;1501.97;;;82.43;;
19219;SDS011;9744;49.364;7.484;2023-12-20T03:46:01;1547.18;;;77.47;;
19219;SDS011;9744;49.364;7.484;2023-12-20T03:48:30;1735.13;;;91.60;;
19219;SDS011;9744;49.364;7.484;2023-12-20T03:50:58;1676.35;;;86.13;;
19219;SDS011;9744;49.364;7.484;2023-12-20T03:53:25;1546.93;;;84.85;;
19219;SDS011;9744;49.364;7.484;2023-12-20T03:55:52;1615.28;;;92.15;;
19219;SDS011;9744;49.364;7.484;2023-12-20T03:58:19;1393.05;;;74.43;;
19219;SDS011;9744;49.364;7.484;2023-12-20T04:00:46;1523.80;;;81.38;;
19219;SDS011;9744;49.364;7.484;2023-12-20T04:03:13;1586.10;;;88.25;;
19219;SDS011;9744;49.364;7.484;2023-12-20T04:05:43;1260.95;;;68.70;;
19219;SDS011;9744;49.364;7.484;2023-12-20T04:08:11;1826.93;;;98.72;;
19219;SDS011;9744;49.364;7.484;2023-12-20T04:10:38;1613.25;;;91.47;;
19219;SDS011;9744;49.364;7.484;2023-12-20T04:13:05;1394.75;;;77.07;;
19219;SDS011;9744;49.364;7.484;2023-12-20T04:15:33;1826.57;;;110.10;;
19219;SDS011;9744;49.364;7.484;2023-12-20T04:18:00;1669.38;;;95.13;;
19219;SDS011;9744;49.364;7.484;2023-12-20T04:20:27;1645.78;;;95.32;;
19219;SDS011;9744;49.364;7.484;2023-12-20T04:22:57;1785.18;;;105.47;;
19219;SDS011;9744;49.364;7.484;2023-12-20T04:25:24;1509.93;;;86.07;;
19219;SDS011;9744;49.364;7.484;2023-12-20T04:27:52;1698.65;;;99.75;;
19219;SDS011;9744;49.364;7.484;2023-12-20T04:30:19;1568.57;;;88.68;;
19219;SDS011;9744;49.364;7.484;2023-12-20T04:32:46;1775.18;;;107.32;;
19219;SDS011;9744;49.364;7.484;2023-12-20T04:35:13;1377.90;;;78.85;;
19219;SDS011;9744;49.364;7.484;2023-12-20T04:37:40;1247.05;;;73.70;;
19219;SDS011;9744;49.364;7.484;2023-12-20T04:40:09;1305.00;;;88.03;;
19219;SDS011;9744;49.364;7.484;2023-12-20T04:42:38;102.57;;;25.98;;
19219;SDS011;9744;49.364;7.484;2023-12-20T04:45:06;632.83;;;50.22;;
19219;SDS011;9744;49.364;7.484;2023-12-20T04:47:34;150.43;;;30.77;;
19219;SDS011;9744;49.364;7.484;2023-12-20T04:50:02;176.25;;;31.77;;
19219;SDS011;9744;49.364;7.484;2023-12-20T04:52:31;136.10;;;31.83;;
19219;SDS011;9744;49.364;7.484;2023-12-20T04:54:58;106.05;;;27.25;;
19219;SDS011;9744;49.364;7.484;2023-12-20T04:57:28;101.93;;;26.48;;
19219;SDS011;9744;49.364;7.484;2023-12-20T04:59:55;153.15;;;43.13;;
19219;SDS011;9744;49.364;7.484;2023-12-20T05:02:22;205.45;;;53.63;;
19219;SDS011;9744;49.364;7.484;2023-12-20T05:04:50;139.38;;;36.15;;
19219;SDS011;9744;49.364;7.484;2023-12-20T05:07:17;225.40;;;57.22;;
19219;SDS011;9744;49.364;7.484;2023-12-20T05:09:44;113.30;;;27.92;;
19219;SDS011;9744;49.364;7.484;2023-12-20T05:12:11;146.05;;;32.80;;
19219;SDS011;9744;49.364;7.484;2023-12-20T05:14:40;113.32;;;26.73;;
19219;SDS011;9744;49.364;7.484;2023-12-20T05:17:07;371.38;;;86.88;;
19219;SDS011;9744;49.364;7.484;2023-12-20T05:19:35;118.68;;;30.13;;
19219;SDS011;9744;49.364;7.484;2023-12-20T05:22:03;103.70;;;29.75;;
19219;SDS011;9744;49.364;7.484;2023-12-20T05:24:30;132.98;;;34.15;;
19219;SDS011;9744;49.364;7.484;2023-12-20T05:26:57;185.55;;;49.00;;
19219;SDS011;9744;49.364;7.484;2023-12-20T05:29:25;91.18;;;24.60;;
19219;SDS011;9744;49.364;7.484;2023-12-20T05:31:54;127.32;;;36.05;;
19219;SDS011;9744;49.364;7.484;2023-12-20T05:34:21;192.02;;;48.35;;
19219;SDS011;9744;49.364;7.484;2023-12-20T05:36:48;194.55;;;58.67;;
19219;SDS011;9744;49.364;7.484;2023-12-20T05:39:16;273.75;;;84.35;;
19219;SDS011;9744;49.364;7.484;2023-12-20T05:41:43;182.65;;;53.08;;
19219;SDS011;9744;49.364;7.484;2023-12-20T05:44:10;158.93;;;42.97;;
19219;SDS011;9744;49.364;7.484;2023-12-20T05:46:39;155.13;;;51.92;;
19219;SDS011;9744;49.364;7.484;2023-12-20T05:49:08;163.60;;;52.17;;
19219;SDS011;9744;49.364;7.484;2023-12-20T05:51:36;181.25;;;57.35;;
19219;SDS011;9744;49.364;7.484;2023-12-20T05:54:03;139.18;;;42.92;;
19219;SDS011;9744;49.364;7.484;2023-12-20T05:56:30;71.53;;;22.73;;
19219;SDS011;9744;49.364;7.484;2023-12-20T05:58:58;91.47;;;30.40;;
19219;SDS011;9744;49.364;7.484;2023-12-20T06:01:25;68.03;;;22.35;;
19219;SDS011;9744;49.364;7.484;2023-12-20T06:03:52;117.20;;;40.75;;
19219;SDS011;9744;49.364;7.484;2023-12-20T06:06:21;61.40;;;18.05;;
19219;SDS011;9744;49.364;7.484;2023-12-20T06:08:48;54.28;;;16.52;;
19219;SDS011;9744;49.364;7.484;2023-12-20T06:11:15;50.53;;;16.42;;
19219;SDS011;9744;49.364;7.484;2023-12-20T06:13:42;43.80;;;14.48;;
19219;SDS011;9744;49.364;7.484;2023-12-20T06:16:10;56.78;;;13.88;;
19219;SDS011;9744;49.364;7.484;2023-12-20T06:18:38;34.45;;;11.88;;
19219;SDS011;9744;49.364;7.484;2023-12-20T06:21:07;40.85;;;12.57;;
19219;SDS011;9744;49.364;7.484;2023-12-20T06:23:39;43.15;;;12.88;;
19219;SDS011;9744;49.364;7.484;2023-12-20T06:26:10;38.80;;;13.00;;
19219;SDS011;9744;49.364;7.484;2023-12-20T06:28:40;29.70;;;11.65;;
19219;SDS011;9744;49.364;7.484;2023-12-20T06:33:38;38.13;;;12.60;;
19219;SDS011;9744;49.364;7.484;2023-12-20T06:36:07;31.65;;;10.65;;
19219;SDS011;9744;49.364;7.484;2023-12-20T06:38:37;30.00;;;11.73;;
19219;SDS011;9744;49.364;7.484;2023-12-20T06:41:05;34.42;;;10.52;;
19219;SDS011;9744;49.364;7.484;2023-12-20T06:43:33;28.60;;;10.55;;
19219;SDS011;9744;49.364;7.484;2023-12-20T06:46:00;31.33;;;10.90;;
19219;SDS011;9744;49.364;7.484;2023-12-20T06:48:27;32.58;;;12.63;;
19219;SDS011;9744;49.364;7.484;2023-12-20T06:50:55;43.97;;;11.18;;
19219;SDS011;9744;49.364;7.484;2023-12-20T06:53:22;32.33;;;10.93;;
19219;SDS011;9744;49.364;7.484;2023-12-20T06:55:50;28.23;;;10.02;;
19219;SDS011;9744;49.364;7.484;2023-12-20T06:58:19;28.90;;;9.43;;
19219;SDS011;9744;49.364;7.484;2023-12-20T07:00:47;26.85;;;8.95;;
19219;SDS011;9744;49.364;7.484;2023-12-20T07:03:14;26.02;;;9.20;;
19219;SDS011;9744;49.364;7.484;2023-12-20T07:05:41;25.83;;;9.30;;
19219;SDS011;9744;49.364;7.484;2023-12-20T07:08:09;24.73;;;9.35;;
19219;SDS011;9744;49.364;7.484;2023-12-20T07:10:36;28.27;;;9.10;;
19219;SDS011;9744;49.364;7.484;2023-12-20T07:13:03;25.27;;;8.90;;
19219;SDS011;9744;49.364;7.484;2023-12-20T07:15:32;25.08;;;8.73;;
19219;SDS011;9744;49.364;7.484;2023-12-20T07:18:01;27.40;;;9.38;;
19219;SDS011;9744;49.364;7.484;2023-12-20T07:20:28;34.42;;;8.95;;
19219;SDS011;9744;49.364;7.484;2023-12-20T07:22:55;21.13;;;9.73;;
19219;SDS011;9744;49.364;7.484;2023-12-20T07:25:22;29.90;;;9.50;;
19219;SDS011;9744;49.364;7.484;2023-12-20T07:27:50;25.83;;;9.40;;
19219;SDS011;9744;49.364;7.484;2023-12-20T07:30:17;34.97;;;10.27;;
19219;SDS011;9744;49.364;7.484;2023-12-20T07:32:46;32.80;;;9.82;;
19219;SDS011;9744;49.364;7.484;2023-12-20T07:35:13;42.35;;;10.95;;
19219;SDS011;9744;49.364;7.484;2023-12-20T07:37:41;34.10;;;10.15;;
19219;SDS011;9744;49.364;7.484;2023-12-20T07:40:08;33.03;;;10.50;;
19219;SDS011;9744;49.364;7.484;2023-12-20T07:42:36;34.72;;;11.85;;
19219;SDS011;9744;49.364;7.484;2023-12-20T07:45:06;40.15;;;11.00;;
19219;SDS011;9744;49.364;7.484;2023-12-20T07:47:34;36.22;;;12.10;;
19219;SDS011;9744;49.364;7.484;2023-12-20T07:50:03;34.20;;;10.98;;
19219;SDS011;9744;49.364;7.484;2023-12-20T07:52:31;34.08;;;11.35;;
19219;SDS011;9744;49.364;7.484;2023-12-20T07:54:58;38.88;;;10.30;;
19219;SDS011;9744;49.364;7.484;2023-12-20T07:57:28;56.08;;;11.90;;
19219;SDS011;9744;49.364;7.484;2023-12-20T07:59:55;40.85;;;10.45;;
19219;SDS011;9744;49.364;7.484;2023-12-20T08:02:24;34.92;;;10.10;;
19219;SDS011;9744;49.364;7.484;2023-12-20T08:04:51;35.97;;;12.25;;
19219;SDS011;9744;49.364;7.484;2023-12-20T08:07:20;29.73;;;9.55;;
19219;SDS011;9744;49.364;7.484;2023-12-20T08:09:48;36.35;;;9.43;;
19219;SDS011;9744;49.364;7.484;2023-12-20T08:12:17;34.38;;;8.57;;
19219;SDS011;9744;49.364;7.484;2023-12-20T08:14:47;29.30;;;9.18;;
19219;SDS011;9744;49.364;7.484;2023-12-20T08:17:15;30.13;;;9.00;;
19219;SDS011;9744;49.364;7.484;2023-12-20T08:19:44;20.27;;;8.50;;
19219;SDS011;9744;49.364;7.484;2023-12-20T08:22:11;27.30;;;8.38;;
19219;SDS011;9744;49.364;7.484;2023-12-20T08:24:40;39.28;;;9.60;;
19219;SDS011;9744;49.364;7.484;2023-12-20T08:27:07;29.48;;;8.43;;
19219;SDS011;9744;49.364;7.484;2023-12-20T08:29:37;36.58;;;9.95;;
19219;SDS011;9744;49.364;7.484;2023-12-20T08:32:05;30.92;;;10.05;;
19219;SDS011;9744;49.364;7.484;2023-12-20T08:34:33;28.13;;;8.70;;
19219;SDS011;9744;49.364;7.484;2023-12-20T08:37:00;24.40;;;9.15;;
19219;SDS011;9744;49.364;7.484;2023-12-20T08:39:27;33.80;;;9.35;;
19219;SDS011;9744;49.364;7.484;2023-12-20T08:41:57;34.65;;;9.80;;
19219;SDS011;9744;49.364;7.484;2023-12-20T08:44:24;36.17;;;9.73;;
19219;SDS011;9744;49.364;7.484;2023-12-20T08:46:51;34.17;;;11.00;;
19219;SDS011;9744;49.364;7.484;2023-12-20T08:49:18;34.95;;;10.63;;
19219;SDS011;9744;49.364;7.484;2023-12-20T08:51:49;44.20;;;11.88;;
19219;SDS011;9744;49.364;7.484;2023-12-20T08:54:19;34.80;;;12.40;;
19219;SDS011;9744;49.364;7.484;2023-12-20T08:56:46;40.88;;;12.90;;
19219;SDS011;9744;49.364;7.484;2023-12-20T08:59:16;37.70;;;11.48;;
19219;SDS011;9744;49.364;7.484;2023-12-20T09:01:44;38.17;;;11.50;;
19219;SDS011;9744;49.364;7.484;2023-12-20T09:04:11;47.28;;;13.13;;
19219;SDS011;9744;49.364;7.484;2023-12-20T09:06:39;41.50;;;11.50;;
19219;SDS011;9744;49.364;7.484;2023-12-20T09:09:06;43.78;;;12.50;;
19219;SDS011;9744;49.364;7.484;2023-12-20T09:11:35;43.85;;;13.50;;
19219;SDS011;9744;49.364;7.484;2023-12-20T09:14:02;40.00;;;11.57;;
19219;SDS011;9744;49.364;7.484;2023-12-20T09:16:31;44.15;;;12.07;;
19219;SDS011;9744;49.364;7.484;2023-12-20T09:18:58;48.05;;;11.57;;
19219;SDS011;9744;49.364;7.484;2023-12-20T09:21:25;36.78;;;11.82;;
19219;SDS011;9744;49.364;7.484;2023-12-20T09:23:53;44.65;;;11.98;;
19219;SDS011;9744;49.364;7.484;2023-12-20T09:26:20;30.38;;;12.90;;
19219;SDS011;9744;49.364;7.484;2023-12-20T09:28:47;30.95;;;11.48;;
19219;SDS011;9744;49.364;7.484;2023-12-20T09:31:14;56.17;;;16.38;;
19219;SDS011;9744;49.364;7.484;2023-12-20T09:33:43;32.95;;;10.27;;
19219;SDS011;9744;49.364;7.484;2023-12-20T09:36:10;31.33;;;10.57;;
19219;SDS011;9744;49.364;7.484;2023-12-20T09:38:39;38.30;;;12.75;;
19219;SDS011;9744;49.364;7.484;2023-12-20T09:41:07;31.80;;;11.32;;
19219;SDS011;9744;49.364;7.484;2023-12-20T09:43:35;39.60;;;11.52;;
19219;SDS011;9744;49.364;7.484;2023-12-20T09:46:05;42.83;;;11.63;;
19219;SDS011;9744;49.364;7.484;2023-12-20T09:48:33;40.38;;;11.85;;
19219;SDS011;9744;49.364;7.484;2023-12-20T09:51:05;37.65;;;12.38;;
19219;SDS011;9744;49.364;7.484;2023-12-20T09:53:33;43.72;;;12.55;;
19219;SDS011;9744;49.364;7.484;2023-12-20T09:56:02;44.60;;;11.73;;
19219;SDS011;9744;49.364;7.484;2023-12-20T09:58:30;39.88;;;12.70;;
19219;SDS011;9744;49.364;7.484;2023-12-20T10:00:59;44.80;;;12.20;;
19219;SDS011;9744;49.364;7.484;2023-12-20T10:03:27;40.85;;;12.43;;
19219;SDS011;9744;49.364;7.484;2023-12-20T10:05:56;43.30;;;12.55;;
19219;SDS011;9744;49.364;7.484;2023-12-20T10:08:26;37.60;;;12.75;;
19219;SDS011;9744;49.364;7.484;2023-12-20T10:10:55;47.42;;;12.15;;
19219;SDS011;9744;49.364;7.484;2023-12-20T10:13:28;38.75;;;12.23;;
19219;SDS011;9744;49.364;7.484;2023-12-20T10:15:56;38.80;;;14.35;;
19219;SDS011;9744;49.364;7.484;2023-12-20T10:18:23;40.35;;;13.43;;
19219;SDS011;9744;49.364;7.484;2023-12-20T10:20:51;42.70;;;12.95;;
19219;SDS011;9744;49.364;7.484;2023-12-20T10:23:18;49.78;;;13.40;;
19219;SDS011;9744;49.364;7.484;2023-12-20T10:25:56;44.97;;;13.90;;
19219;SDS011;9744;49.364;7.484;2023-12-20T10:28:24;48.63;;;16.00;;
19219;SDS011;9744;49.364;7.484;2023-12-20T10:30:53;51.25;;;15.10;;
19219;SDS011;9744;49.364;7.484;2023-12-20T10:33:24;40.38;;;12.38;;
19219;SDS011;9744;49.364;7.484;2023-12-20T10:35:52;38.20;;;11.55;;
19219;SDS011;9744;49.364;7.484;2023-12-20T10:38:20;42.40;;;11.45;;
19219;SDS011;9744;49.364;7.484;2023-12-20T10:40:47;38.67;;;12.88;;
19219;SDS011;9744;49.364;7.484;2023-12-20T10:43:17;39.03;;;12.90;;
19219;SDS011;9744;49.364;7.484;2023-12-20T10:45:47;38.45;;;12.73;;
19219;SDS011;9744;49.364;7.484;2023-12-20T10:48:15;48.75;;;13.93;;
19219;SDS011;9744;49.364;7.484;2023-12-20T10:50:44;38.25;;;12.45;;
19219;SDS011;9744;49.364;7.484;2023-12-20T10:53:13;41.80;;;12.77;;
19219;SDS011;9744;49.364;7.484;2023-12-20T10:55:42;48.58;;;12.35;;
19219;SDS011;9744;49.364;7.484;2023-12-20T10:58:10;42.08;;;12.75;;
19219;SDS011;9744;49.364;7.484;2023-12-20T11:00:41;29.63;;;10.75;;
19219;SDS011;9744;49.364;7.484;2023-12-20T11:03:12;38.58;;;11.32;;
19219;SDS011;9744;49.364;7.484;2023-12-20T11:05:42;32.72;;;11.05;;
19219;SDS011;9744;49.364;7.484;2023-12-20T11:08:16;35.70;;;12.23;;
19219;SDS011;9744;49.364;7.484;2023-12-20T11:10:54;31.75;;;10.88;;
19219;SDS011;9744;49.364;7.484;2023-12-20T11:13:29;37.10;;;11.25;;
19219;SDS011;9744;49.364;7.484;2023-12-20T11:16:04;65.80;;;24.42;;
19219;SDS011;9744;49.364;7.484;2023-12-20T11:18:40;31.20;;;9.85;;
19219;SDS011;9744;49.364;7.484;2023-12-20T11:21:08;36.22;;;9.43;;
19219;SDS011;9744;49.364;7.484;2023-12-20T11:23:36;26.63;;;9.30;;
19219;SDS011;9744;49.364;7.484;2023-12-20T11:26:03;32.38;;;9.80;;
19219;SDS011;9744;49.364;7.484;2023-12-20T11:28:30;33.22;;;9.10;;
19219;SDS011;9744;49.364;7.484;2023-12-20T11:30:58;33.90;;;9.35;;
19219;SDS011;9744;49.364;7.484;2023-12-20T11:33:35;31.45;;;10.05;;
19219;SDS011;9744;49.364;7.484;2023-12-20T11:36:13;27.45;;;9.02;;
19219;SDS011;9744;49.364;7.484;2023-12-20T11:38:54;24.73;;;8.20;;
19219;SDS011;9744;49.364;7.484;2023-12-20T11:41:23;24.60;;;7.78;;
19219;SDS011;9744;49.364;7.484;2023-12-20T11:43:52;30.48;;;8.88;;
19219;SDS011;9744;49.364;7.484;2023-12-20T11:46:21;36.22;;;8.80;;
19219;SDS011;9744;49.364;7.484;2023-12-20T11:48:51;28.98;;;7.55;;
19219;SDS011;9744;49.364;7.484;2023-12-20T11:51:24;22.73;;;7.85;;
19219;SDS011;9744;49.364;7.484;2023-12-20T11:53:54;36.55;;;7.93;;
19219;SDS011;9744;49.364;7.484;2023-12-20T11:56:22;21.48;;;7.93;;
19219;SDS011;9744;49.364;7.484;2023-12-20T11:58:52;58.53;;;14.48;;
19219;SDS011;9744;49.364;7.484;2023-12-20T12:01:22;30.25;;;7.63;;
19219;SDS011;9744;49.364;7.484;2023-12-20T12:03:49;29.67;;;6.82;;
19219;SDS011;9744;49.364;7.484;2023-12-20T12:06:30;23.33;;;6.88;;
19219;SDS011;9744;49.364;7.484;2023-12-20T12:08:58;23.63;;;6.80;;
19219;SDS011;9744;49.364;7.484;2023-12-20T12:11:25;27.08;;;10.68;;
19219;SDS011;9744;49.364;7.484;2023-12-20T12:13:53;35.95;;;9.52;;
19219;SDS011;9744;49.364;7.484;2023-12-20T12:19:26;26.30;;;6.63;;
19219;SDS011;9744;49.364;7.484;2023-12-20T12:22:03;19.23;;;6.10;;
19219;SDS011;9744;49.364;7.484;2023-12-20T12:24:32;23.77;;;7.15;;
19219;SDS011;9744;49.364;7.484;2023-12-20T12:26:59;15.70;;;6.03;;
19219;SDS011;9744;49.364;7.484;2023-12-20T12:29:27;24.02;;;5.78;;
19219;SDS011;9744;49.364;7.484;2023-12-20T12:32:00;22.10;;;5.63;;
19219;SDS011;9744;49.364;7.484;2023-12-20T12:34:32;20.70;;;6.03;;
19219;SDS011;9744;49.364;7.484;2023-12-20T12:37:00;25.38;;;6.40;;
19219;SDS011;9744;49.364;7.484;2023-12-20T12:39:27;32.58;;;5.80;;
19219;SDS011;9744;49.364;7.484;2023-12-20T12:41:57;28.40;;;5.30;;
19219;SDS011;9744;49.364;7.484;2023-12-20T12:44:26;24.45;;;5.55;;
19219;SDS011;9744;49.364;7.484;2023-12-20T12:46:58;21.52;;;6.40;;
19219;SDS011;9744;49.364;7.484;2023-12-20T12:49:28;23.67;;;7.88;;
19219;SDS011;9744;49.364;7.484;2023-12-20T12:52:03;23.85;;;5.97;;
19219;SDS011;9744;49.364;7.484;2023-12-20T12:54:31;29.40;;;7.63;;
19219;SDS011;9744;49.364;7.484;2023-12-20T12:57:01;14.73;;;5.13;;
19219;SDS011;9744;49.364;7.484;2023-12-20T12:59:33;25.13;;;6.55;;
19219;SDS011;9744;49.364;7.484;2023-12-20T13:02:00;22.98;;;7.20;;
19219;SDS011;9744;49.364;7.484;2023-12-20T13:04:29;25.17;;;8.80;;
19219;SDS011;9744;49.364;7.484;2023-12-20T13:06:59;24.65;;;7.15;;
19219;SDS011;9744;49.364;7.484;2023-12-20T13:09:31;27.05;;;6.75;;
19219;SDS011;9744;49.364;7.484;2023-12-20T13:12:01;18.85;;;5.07;;
19219;SDS011;9744;49.364;7.484;2023-12-20T13:14:31;25.65;;;5.82;;
19219;SDS011;9744;49.364;7.484;2023-12-20T13:16:59;25.60;;;5.88;;
19219;SDS011;9744;49.364;7.484;2023-12-20T13:19:29;33.65;;;7.32;;
19219;SDS011;9744;49.364;7.484;2023-12-20T13:21:57;22.33;;;6.15;;
19219;SDS011;9744;49.364;7.484;2023-12-20T13:24:25;18.88;;;6.95;;
19219;SDS011;9744;49.364;7.484;2023-12-20T13:26:54;19.65;;;6.00;;
19219;SDS011;9744;49.364;7.484;2023-12-20T13:29:22;25.27;;;6.80;;
19219;SDS011;9744;49.364;7.484;2023-12-20T13:31:49;22.60;;;6.15;;
19219;SDS011;9744;49.364;7.484;2023-12-20T13:34:19;19.27;;;6.70;;
19219;SDS011;9744;49.364;7.484;2023-12-20T13:36:48;22.88;;;5.82;;
19219;SDS011;9744;49.364;7.484;2023-12-20T13:39:16;21.95;;;5.88;;
19219;SDS011;9744;49.364;7.484;2023-12-20T13:41:43;23.80;;;5.75;;
19219;SDS011;9744;49.364;7.484;2023-12-20T13:44:14;26.85;;;5.75;;
19219;SDS011;9744;49.364;7.484;2023-12-20T13:46:42;28.48;;;5.30;;
19219;SDS011;9744;49.364;7.484;2023-12-20T13:49:10;30.02;;;5.13;;
19219;SDS011;9744;49.364;7.484;2023-12-20T13:51:39;29.52;;;5.45;;
19219;SDS011;9744;49.364;7.484;2023-12-20T13:54:06;26.52;;;5.70;;
19219;SDS011;9744;49.364;7.484;2023-12-20T13:56:37;42.90;;;9.02;;
19219;SDS011;9744;49.364;7.484;2023-12-20T13:59:07;29.45;;;4.85;;
19219;SDS011;9744;49.364;7.484;2023-12-20T14:01:35;19.83;;;4.65;;
19219;SDS011;9744;49.364;7.484;2023-12-20T14:04:03;24.75;;;5.00;;
19219;SDS011;9744;49.364;7.484;2023-12-20T14:06:31;23.08;;;5.38;;
19219;SDS011;9744;49.364;7.484;2023-12-20T14:08:59;27.85;;;6.60;;
19219;SDS011;9744;49.364;7.484;2023-12-20T14:11:26;19.67;;;4.25;;
19219;SDS011;9744;49.364;7.484;2023-12-20T14:13:55;16.63;;;4.13;;
19219;SDS011;9744;49.364;7.484;2023-12-20T14:16:24;26.85;;;5.15;;
19219;SDS011;9744;49.364;7.484;2023-12-20T14:18:53;26.35;;;4.93;;
19219;SDS011;9744;49.364;7.484;2023-12-20T14:21:22;17.00;;;4.65;;
19219;SDS011;9744;49.364;7.484;2023-12-20T14:23:50;25.83;;;4.90;;
19219;SDS011;9744;49.364;7.484;2023-12-20T14:26:18;29.27;;;5.22;;
19219;SDS011;9744;49.364;7.484;2023-12-20T14:28:45;23.35;;;5.55;;
19219;SDS011;9744;49.364;7.484;2023-12-20T14:31:12;22.60;;;4.65;;
19219;SDS011;9744;49.364;7.484;2023-12-20T14:33:39;20.13;;;4.00;;
19219;SDS011;9744;49.364;7.484;2023-12-20T14:36:09;33.28;;;6.57;;
19219;SDS011;9744;49.364;7.484;2023-12-20T14:38:36;27.55;;;6.07;;
19219;SDS011;9744;49.364;7.484;2023-12-20T14:41:04;22.20;;;5.22;;
19219;SDS011;9744;49.364;7.484;2023-12-20T14:43:34;29.33;;;5.03;;